createdAt,value
2023-04-21T00:01:15.528Z,62.19
2023-04-21T00:03:41.820Z,62.05
2023-04-21T00:06:08.126Z,61.92
2023-04-21T00:08:34.386Z,61.96
2023-04-21T00:11:00.508Z,61.72
2023-04-21T00:13:26.593Z,62.10
2023-04-21T00:15:52.767Z,62.02
2023-04-21T00:18:18.921Z,62.11
2023-04-21T00:20:45.026Z,62.22
2023-04-21T00:23:11.142Z,61.97
2023-04-21T00:25:37.257Z,61.86
2023-04-21T00:28:03.411Z,62.05
2023-04-21T00:30:29.503Z,61.85
2023-04-21T00:32:55.655Z,62.19
2023-04-21T00:35:21.799Z,62.15
2023-04-21T00:37:47.897Z,62.09
2023-04-21T00:40:14.010Z,61.80
2023-04-21T00:42:40.117Z,61.89
2023-04-21T00:45:06.251Z,61.98
2023-04-21T00:47:32.429Z,62.03
2023-04-21T00:49:58.548Z,62.21
2023-04-21T00:52:24.708Z,62.27
2023-04-21T00:54:50.864Z,62.27
2023-04-21T00:57:16.966Z,62.30
2023-04-21T00:59:43.057Z,62.19
2023-04-21T01:02:09.225Z,62.33
2023-04-21T01:04:35.380Z,62.16
2023-04-21T01:07:01.498Z,62.34
2023-04-21T01:09:27.597Z,62.24
2023-04-21T01:11:53.727Z,62.14
2023-04-21T01:14:19.817Z,62.23
2023-04-21T01:16:45.944Z,62.25
2023-04-21T01:19:12.034Z,62.00
2023-04-21T01:21:38.120Z,62.08
2023-04-21T01:24:04.238Z,62.39
2023-04-21T01:26:30.325Z,61.98
2023-04-21T01:28:56.417Z,62.07
2023-04-21T01:31:22.531Z,62.16
2023-04-21T01:33:48.634Z,62.30
2023-04-21T01:36:14.725Z,62.08
2023-04-21T01:38:40.870Z,62.11
2023-04-21T01:41:06.984Z,62.00
2023-04-21T01:43:33.062Z,62.19
2023-04-21T01:45:59.324Z,62.12
2023-04-21T01:48:25.471Z,62.17
2023-04-21T01:50:51.596Z,62.38
2023-04-21T01:53:17.704Z,62.31
2023-04-21T01:55:43.800Z,62.12
2023-04-21T01:58:09.894Z,62.36
2023-04-21T02:00:36.014Z,62.19
2023-04-21T02:03:02.164Z,62.30
2023-04-21T02:05:28.323Z,62.13
2023-04-21T02:07:54.516Z,62.31
2023-04-21T02:10:20.610Z,62.09
2023-04-21T02:12:46.706Z,62.31
2023-04-21T02:15:12.812Z,62.15
2023-04-21T02:17:38.969Z,62.15
2023-04-21T02:20:05.089Z,62.35
2023-04-21T02:22:31.192Z,62.12
2023-04-21T02:24:57.278Z,62.40
2023-04-21T02:27:23.369Z,62.42
2023-04-21T02:29:49.478Z,62.07
2023-04-21T02:32:24.858Z,62.39
2023-04-21T02:34:52.195Z,62.56
2023-04-21T02:37:18.299Z,62.22
2023-04-21T02:39:44.422Z,62.31
2023-04-21T02:42:10.517Z,62.42
2023-04-21T02:44:36.607Z,62.47
2023-04-21T02:47:02.780Z,62.36
2023-04-21T02:49:29.123Z,62.33
2023-04-21T02:51:55.221Z,62.23
2023-04-21T02:54:21.309Z,62.50
2023-04-21T02:56:47.414Z,62.35
2023-04-21T02:59:13.520Z,62.10
2023-04-21T03:01:39.627Z,62.25
2023-04-21T03:04:05.814Z,62.37
2023-04-21T03:06:31.979Z,62.28
2023-04-21T03:08:58.084Z,62.44
2023-04-21T03:11:24.287Z,62.45
2023-04-21T03:13:50.371Z,62.43
2023-04-21T03:16:16.520Z,62.42
2023-04-21T03:18:42.662Z,62.28
2023-04-21T03:21:08.754Z,62.41
2023-04-21T03:23:34.837Z,62.31
2023-04-21T03:26:00.952Z,62.35
2023-04-21T03:28:27.040Z,62.52
2023-04-21T03:30:53.144Z,62.37
2023-04-21T03:33:19.269Z,62.22
2023-04-21T03:35:45.368Z,62.48
2023-04-21T03:38:11.456Z,62.34
2023-04-21T03:40:37.594Z,62.30
2023-04-21T03:43:03.707Z,62.34
2023-04-21T03:45:29.819Z,62.29
2023-04-21T03:47:56.065Z,62.53
2023-04-21T03:50:22.259Z,62.43
2023-04-21T03:52:48.364Z,62.35
2023-04-21T03:55:14.594Z,62.28
2023-04-21T03:57:40.701Z,62.36
2023-04-21T04:00:06.829Z,62.52
2023-04-21T04:02:33.037Z,62.49
2023-04-21T04:04:59.277Z,62.30
2023-04-21T04:07:25.412Z,62.57
2023-04-21T04:09:51.522Z,62.52
2023-04-21T04:12:17.614Z,62.30
2023-04-21T04:14:43.703Z,62.23
2023-04-21T04:17:09.819Z,62.34
2023-04-21T04:19:35.942Z,62.78
2023-04-21T04:22:02.044Z,62.46
2023-04-21T04:24:28.169Z,62.38
2023-04-21T04:26:54.288Z,62.40
2023-04-21T04:29:20.583Z,62.43
2023-04-21T04:31:47.027Z,62.30
2023-04-21T04:34:13.241Z,62.39
2023-04-21T04:36:39.363Z,62.37
2023-04-21T04:39:06.357Z,62.44
2023-04-21T04:41:33.874Z,62.38
2023-04-21T04:44:00.850Z,62.33
2023-04-21T04:46:27.278Z,62.63
2023-04-21T04:48:53.398Z,62.54
2023-04-21T04:51:19.496Z,62.58
2023-04-21T04:53:45.614Z,62.42
2023-04-21T04:56:11.718Z,62.42
2023-04-21T04:58:37.832Z,62.51
2023-04-21T05:01:03.951Z,62.57
2023-04-21T05:03:30.221Z,62.37
2023-04-21T05:05:56.384Z,62.60
2023-04-21T05:08:22.516Z,62.46
2023-04-21T05:10:48.617Z,62.36
2023-04-21T05:13:14.722Z,62.38
2023-04-21T05:15:40.910Z,62.50
2023-04-21T05:18:07.052Z,62.41
2023-04-21T05:20:33.169Z,62.41
2023-04-21T05:22:59.294Z,62.62
2023-04-21T05:25:25.387Z,62.57
2023-04-21T05:27:51.494Z,62.46
2023-04-21T05:30:17.654Z,62.62
2023-04-21T05:32:43.839Z,62.62
2023-04-21T05:35:09.946Z,62.79
2023-04-21T05:37:36.053Z,62.66
2023-04-21T05:40:02.153Z,62.46
2023-04-21T05:42:28.287Z,62.45
2023-04-21T05:44:54.398Z,62.43
2023-04-21T05:47:20.516Z,62.52
2023-04-21T05:49:46.649Z,62.61
2023-04-21T05:52:12.765Z,62.53
2023-04-21T05:54:38.871Z,62.73
2023-04-21T05:57:04.979Z,62.64
2023-04-21T05:59:31.215Z,62.69
2023-04-21T06:01:57.334Z,62.54
2023-04-21T06:04:23.919Z,62.31
2023-04-21T06:06:50.282Z,62.61
2023-04-21T06:09:16.404Z,62.56
2023-04-21T06:11:42.510Z,62.46
2023-04-21T06:14:08.649Z,62.49
2023-04-21T06:16:34.796Z,62.51
2023-04-21T06:19:01.000Z,62.68
2023-04-21T06:21:27.174Z,62.58
2023-04-21T06:23:53.265Z,62.71
2023-04-21T06:26:19.350Z,62.87
2023-04-21T06:28:45.458Z,62.69
2023-04-21T06:31:11.601Z,62.65
2023-04-21T06:33:37.700Z,62.53
2023-04-21T06:36:03.879Z,62.68
2023-04-21T06:38:30.057Z,62.64
2023-04-21T06:40:56.163Z,62.75
2023-04-21T06:43:22.287Z,62.77
2023-04-21T06:45:48.402Z,62.77
2023-04-21T06:48:14.542Z,62.51
2023-04-21T06:50:40.695Z,62.71
2023-04-21T06:53:06.796Z,62.80
2023-04-21T06:55:32.888Z,62.54
2023-04-21T06:57:59.041Z,62.81
2023-04-21T07:00:25.160Z,62.79
2023-04-21T07:02:51.390Z,62.69
2023-04-21T07:05:17.730Z,62.75
2023-04-21T07:07:43.833Z,62.59
2023-04-21T07:10:09.927Z,62.62
2023-04-21T07:12:36.050Z,62.61
2023-04-21T07:15:02.161Z,62.41
2023-04-21T07:17:28.279Z,62.71
2023-04-21T07:19:54.407Z,62.80
2023-04-21T07:22:20.504Z,62.49
2023-04-21T07:24:48.021Z,62.71
2023-04-21T07:27:15.314Z,62.71
2023-04-21T07:29:41.434Z,62.61
2023-04-21T07:32:07.534Z,62.61
2023-04-21T07:34:33.660Z,62.81
2023-04-21T07:36:59.759Z,62.74
2023-04-21T07:39:25.859Z,62.46
2023-04-21T07:41:51.980Z,62.85
2023-04-21T07:44:18.079Z,62.76
2023-04-21T07:46:44.275Z,62.60
2023-04-21T07:49:10.479Z,62.77
2023-04-21T07:51:36.575Z,62.64
2023-04-21T07:54:02.680Z,62.69
2023-04-21T07:56:28.869Z,62.42
2023-04-21T07:58:55.009Z,62.81
2023-04-21T08:01:21.211Z,62.80
2023-04-21T08:03:47.711Z,62.85
2023-04-21T08:06:14.234Z,62.73
2023-04-21T08:08:40.448Z,62.56
2023-04-21T08:11:07.127Z,62.58
2023-04-21T08:13:34.253Z,62.75
2023-04-21T08:16:00.488Z,62.84
2023-04-21T08:18:26.642Z,62.75
2023-04-21T08:20:52.800Z,62.85
2023-04-21T08:23:18.961Z,62.60
2023-04-21T08:25:45.174Z,62.80
2023-04-21T08:28:11.357Z,62.55
2023-04-21T08:30:37.621Z,62.52
2023-04-21T08:33:03.785Z,62.57
2023-04-21T08:35:29.995Z,62.53
2023-04-21T08:37:56.127Z,62.72
2023-04-21T08:40:22.311Z,62.76
2023-04-21T08:42:48.459Z,62.38
2023-04-21T08:45:14.590Z,62.63
2023-04-21T08:47:40.839Z,62.87
2023-04-21T08:50:06.980Z,62.62
2023-04-21T08:52:33.087Z,62.59
2023-04-21T08:54:59.228Z,62.77
2023-04-21T08:57:25.336Z,62.56
2023-04-21T08:59:51.444Z,62.77
2023-04-21T09:02:17.761Z,62.67
2023-04-21T09:04:44.140Z,62.85
2023-04-21T09:07:10.375Z,62.86
2023-04-21T09:09:36.489Z,62.76
2023-04-21T09:12:02.586Z,62.60
2023-04-21T09:14:28.687Z,62.48
2023-04-21T09:16:54.932Z,62.57
2023-04-21T09:19:21.290Z,62.62
2023-04-21T09:21:47.612Z,62.53
2023-04-21T09:24:13.731Z,62.64
2023-04-21T09:26:39.858Z,62.66
2023-04-21T09:29:05.971Z,62.55
2023-04-21T09:31:32.224Z,62.48
2023-04-21T09:34:00.415Z,62.57
2023-04-21T09:36:27.128Z,62.64
2023-04-21T09:39:03.764Z,62.83
2023-04-21T09:41:39.345Z,62.81
2023-04-21T09:44:05.464Z,62.54
2023-04-21T09:46:31.737Z,62.51
2023-04-21T09:48:57.909Z,62.67
2023-04-21T09:51:42.207Z,62.56
2023-04-21T09:54:22.038Z,62.47
2023-04-21T09:56:54.948Z,62.60
2023-04-21T09:59:23.365Z,62.61
2023-04-21T10:01:49.856Z,62.62
2023-04-21T10:04:16.249Z,62.78
2023-04-21T10:06:42.546Z,62.65
2023-04-21T10:09:08.655Z,62.78
2023-04-21T10:11:35.286Z,62.72
2023-04-21T10:14:01.395Z,62.83
2023-04-21T10:16:27.530Z,62.62
2023-04-21T10:18:53.662Z,62.85
2023-04-21T10:21:19.746Z,62.89
2023-04-21T10:23:45.850Z,62.74
2023-04-21T10:26:11.983Z,62.67
2023-04-21T10:28:38.067Z,62.76
2023-04-21T10:31:04.315Z,62.77
2023-04-21T10:33:30.973Z,62.78
2023-04-21T10:35:57.061Z,63.16
2023-04-21T10:38:23.156Z,62.77
2023-04-21T10:40:49.270Z,62.77
2023-04-21T10:43:15.384Z,62.83
2023-04-21T10:45:41.494Z,62.96
2023-04-21T10:48:07.651Z,63.15
2023-04-21T10:50:33.806Z,62.98
2023-04-21T10:52:59.885Z,62.79
2023-04-21T10:55:26.101Z,63.01
2023-04-21T10:57:52.203Z,62.61
2023-04-21T11:00:18.296Z,62.65
2023-04-21T11:02:45.087Z,62.88
2023-04-21T11:05:11.676Z,62.81
2023-04-21T11:07:37.888Z,62.84
2023-04-21T11:10:04.000Z,63.00
2023-04-21T11:12:30.222Z,62.82
2023-04-21T11:14:56.335Z,63.05
2023-04-21T11:17:22.472Z,62.95
2023-04-21T11:19:48.580Z,62.94
2023-04-21T11:22:14.666Z,62.89
2023-04-21T11:24:40.782Z,63.07
2023-04-21T11:27:06.906Z,62.83
2023-04-21T11:29:33.000Z,63.06
2023-04-21T11:31:59.132Z,63.08
2023-04-21T11:34:25.647Z,63.14
2023-04-21T11:36:51.831Z,62.80
2023-04-21T11:39:20.226Z,63.01
2023-04-21T11:41:47.629Z,63.03
2023-04-21T11:44:13.768Z,62.86
2023-04-21T11:46:39.928Z,62.94
2023-04-21T11:49:06.091Z,62.86
2023-04-21T11:51:32.220Z,62.98
2023-04-21T11:53:58.349Z,63.19
2023-04-21T11:56:24.530Z,62.82
2023-04-21T11:58:50.689Z,63.10
2023-04-21T12:01:16.857Z,62.89
2023-04-21T12:03:43.172Z,63.05
2023-04-21T12:06:09.414Z,63.01
2023-04-21T12:08:35.603Z,62.95
2023-04-21T12:11:01.695Z,62.88
2023-04-21T12:13:27.783Z,63.06
2023-04-21T12:15:53.920Z,63.13
2023-04-21T12:18:20.095Z,63.16
2023-04-21T12:20:46.182Z,62.99
2023-04-21T12:23:12.306Z,63.00
2023-04-21T12:25:38.414Z,62.91
2023-04-21T12:28:04.526Z,62.90
2023-04-21T12:30:30.814Z,63.05
2023-04-21T12:32:57.107Z,62.96
2023-04-21T12:35:23.339Z,63.11
2023-04-21T12:37:49.952Z,62.98
2023-04-21T12:40:16.069Z,63.28
2023-04-21T12:42:42.166Z,62.88
2023-04-21T12:45:08.282Z,63.05
2023-04-21T12:47:34.418Z,62.92
2023-04-21T12:50:00.579Z,63.06
2023-04-21T12:52:26.691Z,62.97
2023-04-21T12:54:52.812Z,62.95
2023-04-21T12:57:18.951Z,63.11
2023-04-21T12:59:46.523Z,63.13
2023-04-21T13:02:12.814Z,62.96
2023-04-21T13:04:39.152Z,62.94
2023-04-21T13:07:05.389Z,62.97
2023-04-21T13:09:31.828Z,63.01
2023-04-21T13:11:58.208Z,62.85
2023-04-21T13:14:24.476Z,62.99
2023-04-21T13:16:51.027Z,63.00
2023-04-21T13:19:17.130Z,63.01
2023-04-21T13:21:43.241Z,62.98
2023-04-21T13:24:11.262Z,63.06
2023-04-21T13:26:39.006Z,62.90
2023-04-21T13:29:05.123Z,62.93
2023-04-21T13:31:31.284Z,63.24
2023-04-21T13:33:57.397Z,62.81
2023-04-21T13:36:23.539Z,62.94
2023-04-21T13:38:49.639Z,62.99
2023-04-21T13:41:15.756Z,62.98
2023-04-21T13:43:41.974Z,63.13
2023-04-21T13:46:08.195Z,62.99
2023-04-21T13:48:34.330Z,63.05
2023-04-21T13:51:00.452Z,63.04
2023-04-21T13:53:26.571Z,62.86
2023-04-21T13:55:52.693Z,63.04
2023-04-21T13:58:18.788Z,62.97
2023-04-21T14:00:44.891Z,63.08
2023-04-21T14:03:11.116Z,62.91
2023-04-21T14:05:37.509Z,62.96
2023-04-21T14:08:03.716Z,62.96
2023-04-21T14:10:29.814Z,62.98
2023-04-21T14:12:55.938Z,62.94
2023-04-21T14:15:22.095Z,62.95
2023-04-21T14:17:48.271Z,63.05
2023-04-21T14:20:14.467Z,62.90
2023-04-21T14:22:40.622Z,62.84
2023-04-21T14:25:06.736Z,62.90
2023-04-21T14:27:32.836Z,62.99
2023-04-21T14:29:58.968Z,63.02
2023-04-21T14:32:25.242Z,63.03
2023-04-21T14:34:51.502Z,62.94
2023-04-21T14:37:17.657Z,62.97
2023-04-21T14:39:43.786Z,62.90
2023-04-21T14:42:09.950Z,63.22
2023-04-21T14:44:36.086Z,63.00
2023-04-21T14:47:09.733Z,62.91
2023-04-21T14:49:37.237Z,63.18
2023-04-21T14:52:03.631Z,62.98
2023-04-21T14:54:29.909Z,63.01
2023-04-21T14:57:06.741Z,63.15
2023-04-21T14:59:42.144Z,62.96
2023-04-21T15:02:08.349Z,63.13
2023-04-21T15:04:34.630Z,63.00
2023-04-21T15:07:01.881Z,62.87
2023-04-21T15:09:29.823Z,63.03
2023-04-21T15:11:55.994Z,62.94
2023-04-21T15:14:22.104Z,63.01
2023-04-21T15:16:49.229Z,62.79
2023-04-21T15:19:15.423Z,63.03
2023-04-21T15:21:41.532Z,63.10
2023-04-21T15:24:07.656Z,63.02
2023-04-21T15:26:33.780Z,63.19
2023-04-21T15:28:59.885Z,63.23
2023-04-21T15:31:26.122Z,63.20
2023-04-21T15:33:52.292Z,63.16
2023-04-21T15:36:18.402Z,63.13
2023-04-21T15:38:44.520Z,63.17
2023-04-21T15:41:10.620Z,63.00
2023-04-21T15:43:36.732Z,63.05
2023-04-21T15:46:03.077Z,63.05
2023-04-21T15:48:29.338Z,63.20
2023-04-21T15:50:55.570Z,63.07
2023-04-21T15:53:21.733Z,63.11
2023-04-21T15:55:47.867Z,63.18
2023-04-21T15:58:13.996Z,63.19
2023-04-21T16:00:40.126Z,63.18
2023-04-21T16:03:06.382Z,63.15
2023-04-21T16:05:33.108Z,63.22
2023-04-21T16:07:59.288Z,62.94
2023-04-21T16:10:25.419Z,63.23
2023-04-21T16:12:51.579Z,63.00
2023-04-21T16:15:23.620Z,63.07
2023-04-21T16:17:50.248Z,63.03
2023-04-21T16:20:16.369Z,63.16
2023-04-21T16:22:43.067Z,63.03
2023-04-21T16:25:09.229Z,63.10
2023-04-21T16:27:35.423Z,63.23
2023-04-21T16:30:01.636Z,63.20
2023-04-21T16:32:27.982Z,63.14
2023-04-21T16:34:54.224Z,63.03
2023-04-21T16:37:20.352Z,63.06
2023-04-21T16:39:46.484Z,63.05
2023-04-21T16:42:12.663Z,63.12
2023-04-21T16:44:39.072Z,63.08
2023-04-21T16:47:05.451Z,63.05
2023-04-21T16:49:31.626Z,63.11
2023-04-21T16:51:57.786Z,63.17
2023-04-21T16:54:23.879Z,63.05
2023-04-21T16:56:50.032Z,63.11
2023-04-21T16:59:16.142Z,63.28
2023-04-21T17:01:42.331Z,63.09
2023-04-21T17:04:08.484Z,63.23
2023-04-21T17:06:34.747Z,63.10
2023-04-21T17:09:00.877Z,63.13
2023-04-21T17:11:26.967Z,63.17
2023-04-21T17:13:53.090Z,63.16
2023-04-21T17:16:19.214Z,63.05
2023-04-21T17:18:45.326Z,63.08
2023-04-21T17:21:11.444Z,63.22
2023-04-21T17:23:37.527Z,63.30
2023-04-21T17:26:03.649Z,63.14
2023-04-21T17:28:29.773Z,63.23
2023-04-21T17:31:03.519Z,63.15
2023-04-21T17:33:39.701Z,63.12
2023-04-21T17:36:05.799Z,63.28
2023-04-21T17:38:31.881Z,63.27
2023-04-21T17:40:57.991Z,63.21
2023-04-21T17:43:24.086Z,63.11
2023-04-21T17:45:50.209Z,63.25
2023-04-21T17:48:16.447Z,63.28
2023-04-21T17:50:42.561Z,63.17
2023-04-21T17:53:08.666Z,63.12
2023-04-21T17:55:34.773Z,63.30
2023-04-21T17:58:00.885Z,63.21
2023-04-21T18:00:26.981Z,63.13
2023-04-21T18:02:53.515Z,63.33
2023-04-21T18:05:20.036Z,63.32
2023-04-21T18:07:46.150Z,63.38
2023-04-21T18:10:12.286Z,63.26
2023-04-21T18:12:38.377Z,63.32
2023-04-21T18:15:04.476Z,63.26
2023-04-21T18:17:30.652Z,63.40
2023-04-21T18:19:56.950Z,63.28
2023-04-21T18:22:23.106Z,63.36
2023-04-21T18:24:49.225Z,63.18
2023-04-21T18:27:15.324Z,63.40
2023-04-21T18:29:41.435Z,63.17
2023-04-21T18:32:07.664Z,63.27
2023-04-21T18:34:33.811Z,63.35
2023-04-21T18:36:59.919Z,63.24
2023-04-21T18:39:26.036Z,63.38
2023-04-21T18:41:52.155Z,63.22
2023-04-21T18:44:18.243Z,63.36
2023-04-21T18:46:44.450Z,63.23
2023-04-21T18:49:10.568Z,63.37
2023-04-21T18:51:36.690Z,63.18
2023-04-21T18:54:02.811Z,63.40
2023-04-21T18:56:28.912Z,63.42
2023-04-21T18:58:55.007Z,63.20
2023-04-21T19:01:21.660Z,63.34
2023-04-21T19:03:48.072Z,63.37
2023-04-21T19:06:14.268Z,63.42
2023-04-21T19:08:42.525Z,63.40
2023-04-21T19:11:09.205Z,63.45
2023-04-21T19:13:35.331Z,63.37
2023-04-21T19:16:01.542Z,63.46
2023-04-21T19:18:27.724Z,63.40
2023-04-21T19:20:53.829Z,63.27
2023-04-21T19:23:19.954Z,63.33
2023-04-21T19:25:46.056Z,63.38
2023-04-21T19:28:12.156Z,63.40
2023-04-21T19:30:38.828Z,63.47
2023-04-21T19:33:04.985Z,63.49
2023-04-21T19:35:31.126Z,63.40
2023-04-21T19:37:57.267Z,63.43
2023-04-21T19:40:23.359Z,63.41
2023-04-21T19:42:49.456Z,63.40
2023-04-21T19:45:15.589Z,63.39
2023-04-21T19:47:41.732Z,63.34
2023-04-21T19:50:07.855Z,63.42
2023-04-21T19:52:33.992Z,63.30
2023-04-21T19:55:00.103Z,63.27
2023-04-21T19:57:26.227Z,63.45
2023-04-21T19:59:52.334Z,63.50
2023-04-21T20:02:18.490Z,63.37
2023-04-21T20:04:44.736Z,63.33
2023-04-21T20:07:10.984Z,63.41
2023-04-21T20:09:37.294Z,63.45
2023-04-21T20:12:03.594Z,63.40
2023-04-21T20:14:29.766Z,63.34
2023-04-21T20:16:55.904Z,63.50
2023-04-21T20:19:22.015Z,63.45
2023-04-21T20:21:48.130Z,63.39
2023-04-21T20:24:14.237Z,63.55
2023-04-21T20:26:40.331Z,63.43
2023-04-21T20:29:06.444Z,63.40
2023-04-21T20:31:32.574Z,63.43
2023-04-21T20:33:58.701Z,63.47
2023-04-21T20:36:24.803Z,63.45
2023-04-21T20:38:50.916Z,63.35
2023-04-21T20:41:17.001Z,63.22
2023-04-21T20:43:43.104Z,63.39
2023-04-21T20:46:09.182Z,63.38
2023-04-21T20:48:35.261Z,63.33
2023-04-21T20:51:01.358Z,63.45
2023-04-21T20:53:27.452Z,63.38
2023-04-21T20:55:53.531Z,63.43
2023-04-21T20:58:19.638Z,63.43
2023-04-21T21:00:45.768Z,63.38
2023-04-21T21:03:12.032Z,63.39
2023-04-21T21:05:38.326Z,63.46
2023-04-21T21:08:04.420Z,63.41
2023-04-21T21:10:30.514Z,63.35
2023-04-21T21:12:56.639Z,63.29
2023-04-21T21:15:22.742Z,63.35
2023-04-21T21:17:48.862Z,63.35
2023-04-21T21:20:14.990Z,63.39
2023-04-21T21:22:41.081Z,63.43
2023-04-21T21:25:07.184Z,63.45
2023-04-21T21:27:33.302Z,63.52
2023-04-21T21:29:59.428Z,63.41
2023-04-21T21:32:25.567Z,63.44
2023-04-21T21:34:52.339Z,63.45
2023-04-21T21:37:18.437Z,63.36
2023-04-21T21:39:44.530Z,63.29
2023-04-21T21:42:10.660Z,63.49
2023-04-21T21:44:36.777Z,63.43
2023-04-21T21:47:02.871Z,63.30
2023-04-21T21:49:28.970Z,63.50
2023-04-21T21:51:55.057Z,63.52
2023-04-21T21:54:21.160Z,63.44
2023-04-21T21:56:47.271Z,63.35
2023-04-21T21:59:13.365Z,63.51
2023-04-21T22:01:39.538Z,63.31
2023-04-21T22:04:05.747Z,63.55
2023-04-21T22:06:31.933Z,63.51
2023-04-21T22:08:58.046Z,63.45
2023-04-21T22:11:24.667Z,63.45
2023-04-21T22:13:50.746Z,63.34
2023-04-21T22:16:16.925Z,63.37
2023-04-21T22:18:43.069Z,63.36
2023-04-21T22:21:09.160Z,63.52
2023-04-21T22:23:35.253Z,63.50
2023-04-21T22:26:01.414Z,63.51
2023-04-21T22:28:27.519Z,63.53
2023-04-21T22:30:53.814Z,63.49
2023-04-21T22:33:19.981Z,63.51
2023-04-21T22:35:46.100Z,63.52
2023-04-21T22:38:12.195Z,63.45
2023-04-21T22:40:38.287Z,63.47
2023-04-21T22:43:04.387Z,63.62
2023-04-21T22:45:30.482Z,63.44
2023-04-21T22:47:56.734Z,63.39
2023-04-21T22:50:22.893Z,63.51
2023-04-21T22:52:48.989Z,63.59
2023-04-21T22:55:15.112Z,63.58
2023-04-21T22:57:41.200Z,63.58
2023-04-21T23:00:07.294Z,63.50
2023-04-21T23:02:33.596Z,63.43
2023-04-21T23:04:59.792Z,63.54
2023-04-21T23:07:25.892Z,63.43
2023-04-21T23:09:52.026Z,63.44
2023-04-21T23:12:18.143Z,63.54
2023-04-21T23:14:44.247Z,63.38
2023-04-21T23:17:10.350Z,63.43
2023-04-21T23:19:36.596Z,63.45
2023-04-21T23:22:02.874Z,63.35
2023-04-21T23:24:29.002Z,63.59
2023-04-21T23:26:55.129Z,63.52
2023-04-21T23:29:21.221Z,63.47
2023-04-21T23:31:47.398Z,63.55
2023-04-21T23:34:13.534Z,63.50
2023-04-21T23:36:39.642Z,63.48
2023-04-21T23:39:06.369Z,63.60
2023-04-21T23:41:32.500Z,63.53
2023-04-21T23:43:58.779Z,63.50
2023-04-21T23:46:24.926Z,63.63
2023-04-21T23:48:51.045Z,63.57
2023-04-21T23:51:17.214Z,63.42
2023-04-21T23:53:43.383Z,63.40
2023-04-21T23:56:09.477Z,63.54
2023-04-21T23:58:35.570Z,63.55
